메인 페이지
METAR-TAF:

METAR-TAF

공항 :

잭슨 국제공항

포트모르즈비, 파푸아뉴기니

위도: 09-26S, 경도: 147-13E, 고도: 38m

현재 날씨관측

예보는 1 시간 9분 전, 19:00시(UTC)에 발표되었습니다.
여러 방향의 바람 3kt
온도 24°C
습도 100%
기압 1007 hPa
시정 10km 이상
고도 5000ft 상공 구름 보통

METAR: AYPY 161900Z VRB03KT 9999 SCT050 24/24 Q1007

시각: 06:09 (20:09 UTC)

예보

예보는 4 시간 9분 전, 16:00시(UTC)에 발표되었습니다.
예보 대상 시간: 16일 18시부터 17일 18시까지 (UTC)
kt
시정 10km 이상
고도 4000ft 상공 구름 많음
17일 0000시부터 (UTC)
여러 방향의 바람 5kt
시정 10km 이상
고도 1800ft 상공 구름 보통
고도 14000ft 상공 구름 보통
17일 0300시부터 (UTC)
8kt
시정: 6000m
고도 2000ft 상공 구름 많음
고도 1000ft 상공 구름 많음
고도 1800ft 상공 구름 조금, 적란운.
약한소나기, 뇌우, 비,

TAF: AYPY 161600Z 1618/1718 00000KT 9999 BKN040 FM170000 VRB05KT 9999 SCT018 SCT140 FM170300 17008KT 9999 -SHRA BKN020 INTER 1704/1708 6000 TSRA BKN010 FEW018CB

4,000개 이상의 공항 관측 자료 및 예보 (METAR 및 TAF 보고).

지도상에서 검색 가능한 기상관측소가 노란 점과 빨간 점으로 표시되어 있습니다.

기상관측소 명을 보려면 표시 위로 마우스를 이동하세요.

날씨 관측과 예보를 보려면 클릭하세요.

지도 변경 : 확대하려면 엑스 표시가 있는 녹색 버튼, 축소하려면 빼기 표시가 있는 녹색 버튼, 다음 페이지의 지도를 보려면 녹색 화살표를 클릭하세요.


METAR-TAF: